createdAt,value
2023-04-30T00:02:25.651Z,11.45
2023-04-30T00:04:54.023Z,11.34
2023-04-30T00:07:23.962Z,11.28
2023-04-30T00:09:52.431Z,11.23
2023-04-30T00:12:23.488Z,11.21
2023-04-30T00:14:52.207Z,11.14
2023-04-30T00:17:23.246Z,11.07
2023-04-30T00:19:52.799Z,11.00
2023-04-30T00:22:21.160Z,10.96
2023-04-30T00:24:51.120Z,10.91
2023-04-30T00:27:19.665Z,10.87
2023-04-30T00:29:48.463Z,10.88
2023-04-30T00:32:16.740Z,10.95
2023-04-30T00:34:44.992Z,11.10
2023-04-30T00:37:13.215Z,11.02
2023-04-30T00:39:42.045Z,10.97
2023-04-30T00:42:11.707Z,11.00
2023-04-30T00:44:40.148Z,10.93
2023-04-30T00:47:08.468Z,10.97
2023-04-30T00:49:36.699Z,11.03
2023-04-30T00:52:05.008Z,10.96
2023-04-30T00:54:33.329Z,10.88
2023-04-30T00:57:01.726Z,10.82
2023-04-30T00:59:31.821Z,10.78
2023-04-30T01:02:00.370Z,10.75
2023-04-30T01:04:29.809Z,10.71
2023-04-30T01:06:58.767Z,10.71
2023-04-30T01:09:27.009Z,10.70
2023-04-30T01:12:06.332Z,10.72
2023-04-30T01:14:44.621Z,10.65
2023-04-30T01:17:22.950Z,10.62
2023-04-30T01:19:51.971Z,10.59
2023-04-30T01:22:33.566Z,10.59
2023-04-30T01:25:22.573Z,10.62
2023-04-30T01:28:11.157Z,10.74
2023-04-30T01:30:41.749Z,10.81
2023-04-30T01:33:10.049Z,10.81
2023-04-30T01:35:58.003Z,10.75
2023-04-30T01:38:42.526Z,10.88
2023-04-30T01:41:17.433Z,10.96
2023-04-30T01:43:56.215Z,10.89
2023-04-30T01:46:30.070Z,10.92
2023-04-30T01:49:10.981Z,10.95
2023-04-30T01:51:43.503Z,10.94
2023-04-30T01:54:21.821Z,10.84
2023-04-30T01:56:58.592Z,10.80
2023-04-30T01:59:28.432Z,10.96
2023-04-30T02:01:57.338Z,10.91
2023-04-30T02:04:25.745Z,10.94
2023-04-30T02:06:54.018Z,10.88
2023-04-30T02:09:24.433Z,10.87
2023-04-30T02:11:53.492Z,10.84
2023-04-30T02:14:21.907Z,10.85
2023-04-30T02:16:55.466Z,10.77
2023-04-30T02:19:23.530Z,10.72
2023-04-30T02:21:51.974Z,10.75
2023-04-30T02:24:20.109Z,10.72
2023-04-30T02:26:48.263Z,10.78
2023-04-30T02:29:17.481Z,10.77
2023-04-30T02:31:46.274Z,10.80
2023-04-30T02:34:15.744Z,10.95
2023-04-30T02:36:43.967Z,10.80
2023-04-30T02:39:12.439Z,10.81
2023-04-30T02:41:40.880Z,10.73
2023-04-30T02:44:09.392Z,10.74
2023-04-30T02:46:37.496Z,10.70
2023-04-30T02:49:05.819Z,10.74
2023-04-30T02:51:35.551Z,10.72
2023-04-30T02:54:03.609Z,10.75
2023-04-30T02:56:31.798Z,10.74
2023-04-30T02:58:59.942Z,10.64
2023-04-30T03:01:28.349Z,10.63
2023-04-30T03:03:56.602Z,10.61
2023-04-30T03:06:25.397Z,10.68
2023-04-30T03:08:57.305Z,10.68
2023-04-30T03:11:25.591Z,10.67
2023-04-30T03:13:54.119Z,10.65
2023-04-30T03:16:22.973Z,10.70
2023-04-30T03:18:51.296Z,10.64
2023-04-30T03:21:19.623Z,10.66
2023-04-30T03:23:47.639Z,10.62
2023-04-30T03:26:18.482Z,10.62
2023-04-30T03:28:46.700Z,10.61
2023-04-30T03:31:14.937Z,10.61
2023-04-30T03:33:43.390Z,10.55
2023-04-30T03:36:11.796Z,10.59
2023-04-30T03:38:39.882Z,10.62
2023-04-30T03:41:08.523Z,10.54
2023-04-30T03:43:38.765Z,10.60
2023-04-30T03:46:09.343Z,10.59
2023-04-30T03:48:37.799Z,10.57
2023-04-30T03:51:06.105Z,10.57
2023-04-30T03:53:35.960Z,10.58
2023-04-30T03:56:04.460Z,10.52
2023-04-30T03:58:34.900Z,10.51
2023-04-30T04:01:04.937Z,10.58
2023-04-30T04:03:35.590Z,10.57
2023-04-30T04:06:05.423Z,10.48
2023-04-30T04:08:35.097Z,10.47
2023-04-30T04:11:03.668Z,10.47
2023-04-30T04:13:32.698Z,10.51
2023-04-30T04:16:02.139Z,10.52
2023-04-30T04:18:31.768Z,10.46
2023-04-30T04:21:01.923Z,10.47
2023-04-30T04:23:31.760Z,10.48
2023-04-30T04:26:00.225Z,10.51
2023-04-30T04:28:28.631Z,10.50
2023-04-30T04:30:57.513Z,10.57
2023-04-30T04:33:26.446Z,10.61
2023-04-30T04:35:57.902Z,10.63
2023-04-30T04:38:27.188Z,10.90
2023-04-30T04:40:59.312Z,10.81
2023-04-30T04:43:27.786Z,10.80
2023-04-30T04:45:56.115Z,10.77
2023-04-30T04:48:24.458Z,10.84
2023-04-30T04:50:53.294Z,10.86
2023-04-30T04:53:26.868Z,10.82
2023-04-30T04:55:55.224Z,10.87
2023-04-30T04:58:23.542Z,11.00
2023-04-30T05:00:52.877Z,10.97
2023-04-30T05:03:22.849Z,11.09
2023-04-30T05:05:51.616Z,11.05
2023-04-30T05:08:20.020Z,11.06
2023-04-30T05:10:51.254Z,11.03
2023-04-30T05:13:19.895Z,11.13
2023-04-30T05:15:48.539Z,11.12
2023-04-30T05:18:17.951Z,11.26
2023-04-30T05:20:46.222Z,11.24
2023-04-30T05:23:14.387Z,11.31
2023-04-30T05:25:42.976Z,11.37
2023-04-30T05:28:13.035Z,11.35
2023-04-30T05:30:41.751Z,11.35
2023-04-30T05:33:09.868Z,11.41
2023-04-30T05:35:38.219Z,11.45
2023-04-30T05:38:06.601Z,11.49
2023-04-30T05:40:34.854Z,11.51
2023-04-30T05:43:03.401Z,11.66
2023-04-30T05:45:33.182Z,11.82
2023-04-30T05:48:02.392Z,11.91
2023-04-30T05:50:30.752Z,11.75
2023-04-30T05:52:58.974Z,11.91
2023-04-30T05:55:27.730Z,12.13
2023-04-30T05:57:56.303Z,12.15
2023-04-30T06:00:27.228Z,12.17
2023-04-30T06:02:56.780Z,12.37
2023-04-30T06:05:25.205Z,12.39
2023-04-30T06:07:53.726Z,12.48
2023-04-30T06:10:22.385Z,12.38
2023-04-30T06:12:51.448Z,12.30
2023-04-30T06:15:19.954Z,12.43
2023-04-30T06:17:48.821Z,12.53
2023-04-30T06:20:19.890Z,12.98
2023-04-30T06:22:48.103Z,12.70
2023-04-30T06:25:16.582Z,12.73
2023-04-30T06:27:46.317Z,13.05
2023-04-30T06:30:15.605Z,13.18
2023-04-30T06:32:44.059Z,13.04
2023-04-30T06:35:12.324Z,13.25
2023-04-30T06:37:41.982Z,13.27
2023-04-30T06:40:10.400Z,13.42
2023-04-30T06:42:41.445Z,13.64
2023-04-30T06:45:11.315Z,13.48
2023-04-30T06:47:40.067Z,13.25
2023-04-30T06:50:09.825Z,13.53
2023-04-30T06:52:37.992Z,13.97
2023-04-30T06:55:09.463Z,14.42
2023-04-30T06:57:38.236Z,14.71
2023-04-30T07:00:08.916Z,14.76
2023-04-30T07:02:37.461Z,14.96
2023-04-30T07:05:06.392Z,15.00
2023-04-30T07:07:34.795Z,15.38
2023-04-30T07:10:03.720Z,15.55
2023-04-30T07:12:33.394Z,15.56
2023-04-30T07:15:01.813Z,15.58
2023-04-30T07:17:32.324Z,15.75
2023-04-30T07:20:00.707Z,15.33
2023-04-30T07:22:28.829Z,15.76
2023-04-30T07:24:58.402Z,15.82
2023-04-30T07:27:27.368Z,15.95
2023-04-30T07:29:57.091Z,16.26
2023-04-30T07:32:27.080Z,16.33
2023-04-30T07:34:56.765Z,16.55
2023-04-30T07:37:25.600Z,16.41
2023-04-30T07:39:54.460Z,16.59
2023-04-30T07:42:23.268Z,16.46
2023-04-30T07:45:04.345Z,16.97
2023-04-30T07:47:34.056Z,16.69
2023-04-30T07:50:02.657Z,16.90
2023-04-30T07:52:30.809Z,16.76
2023-04-30T07:54:59.268Z,16.94
2023-04-30T07:57:27.989Z,16.93
2023-04-30T07:59:56.490Z,16.90
2023-04-30T08:02:25.082Z,17.32
2023-04-30T08:04:54.638Z,16.10
2023-04-30T08:07:22.741Z,15.75
2023-04-30T08:09:50.812Z,16.79
2023-04-30T08:12:19.204Z,17.61
2023-04-30T08:14:47.869Z,17.26
2023-04-30T08:17:16.525Z,17.04
2023-04-30T08:19:45.034Z,17.24
2023-04-30T08:22:15.140Z,17.39
2023-04-30T08:24:43.800Z,18.26
2023-04-30T08:27:11.986Z,17.83
2023-04-30T08:29:40.519Z,17.04
2023-04-30T08:32:11.848Z,16.83
2023-04-30T08:34:41.699Z,17.27
2023-04-30T08:37:09.908Z,18.14
2023-04-30T08:39:39.752Z,17.93
2023-04-30T08:42:10.693Z,17.95
2023-04-30T08:44:43.626Z,18.18
2023-04-30T08:47:14.497Z,18.94
2023-04-30T08:49:45.434Z,19.08
2023-04-30T08:52:13.843Z,19.29
2023-04-30T08:54:46.346Z,19.44
2023-04-30T08:57:14.817Z,20.64
2023-04-30T08:59:47.628Z,20.33
2023-04-30T09:02:16.062Z,20.70
2023-04-30T09:04:44.489Z,20.17
2023-04-30T09:07:14.548Z,19.81
2023-04-30T09:09:46.844Z,19.43
2023-04-30T09:12:19.355Z,20.01
2023-04-30T09:15:03.848Z,20.51
2023-04-30T09:17:32.796Z,20.90
2023-04-30T09:20:09.207Z,19.65
2023-04-30T09:22:38.828Z,20.02
2023-04-30T09:25:11.292Z,19.64
2023-04-30T09:27:40.686Z,19.19
2023-04-30T09:30:11.250Z,18.56
2023-04-30T09:32:56.306Z,19.36
2023-04-30T09:35:31.078Z,19.19
2023-04-30T09:38:02.018Z,19.05
2023-04-30T09:40:39.149Z,18.72
2023-04-30T09:43:07.948Z,19.96
2023-04-30T09:45:46.599Z,20.78
2023-04-30T09:48:18.032Z,20.94
2023-04-30T09:50:48.775Z,20.92
2023-04-30T09:53:18.840Z,20.65
2023-04-30T09:55:55.696Z,19.89
2023-04-30T09:58:29.144Z,19.44
2023-04-30T10:01:00.741Z,19.40
2023-04-30T10:03:29.382Z,20.14
2023-04-30T10:05:59.576Z,20.27
2023-04-30T10:08:29.994Z,19.82
2023-04-30T10:11:03.924Z,20.69
2023-04-30T10:13:34.495Z,21.83
2023-04-30T10:16:08.774Z,21.30
2023-04-30T10:18:43.404Z,20.89
2023-04-30T10:21:14.563Z,21.45
2023-04-30T10:23:43.797Z,21.55
2023-04-30T10:26:14.092Z,19.99
2023-04-30T10:28:43.434Z,19.03
2023-04-30T10:31:13.825Z,19.34
2023-04-30T10:33:50.664Z,18.67
2023-04-30T10:36:27.231Z,18.79
2023-04-30T10:38:56.160Z,19.28
2023-04-30T10:41:27.363Z,19.43
2023-04-30T10:43:59.037Z,18.80
2023-04-30T10:46:29.698Z,19.17
2023-04-30T10:48:58.319Z,19.89
2023-04-30T10:51:46.010Z,20.06
2023-04-30T10:54:18.690Z,19.65
2023-04-30T10:56:53.541Z,19.45
2023-04-30T10:59:24.219Z,18.36
2023-04-30T11:02:00.900Z,18.22
2023-04-30T11:04:29.431Z,18.64
2023-04-30T11:07:08.314Z,19.41
2023-04-30T11:09:39.312Z,19.77
2023-04-30T11:12:17.080Z,20.70
2023-04-30T11:14:46.650Z,20.90
2023-04-30T11:17:22.868Z,20.74
2023-04-30T11:19:52.832Z,21.59
2023-04-30T11:22:24.647Z,21.45
2023-04-30T11:25:05.328Z,21.61
2023-04-30T11:27:36.450Z,20.80
2023-04-30T11:30:11.688Z,21.19
2023-04-30T11:32:41.325Z,21.82
2023-04-30T11:35:10.451Z,21.96
2023-04-30T11:37:40.581Z,21.52
2023-04-30T11:40:11.561Z,20.83
2023-04-30T11:42:46.104Z,21.20
2023-04-30T11:45:18.083Z,22.00
2023-04-30T11:47:47.728Z,22.78
2023-04-30T11:50:17.727Z,22.44
2023-04-30T11:52:50.764Z,22.62
2023-04-30T11:55:20.883Z,22.61
2023-04-30T11:57:55.082Z,21.42
2023-04-30T12:00:28.830Z,20.89
2023-04-30T12:02:58.544Z,20.55
2023-04-30T12:05:28.502Z,20.13
2023-04-30T12:07:58.250Z,19.12
2023-04-30T12:10:27.305Z,18.93
2023-04-30T12:12:56.786Z,19.27
2023-04-30T12:15:27.554Z,20.30
2023-04-30T12:17:58.115Z,19.99
2023-04-30T12:20:28.542Z,19.28
2023-04-30T12:22:58.151Z,19.20
2023-04-30T12:25:29.229Z,19.27
2023-04-30T12:28:00.926Z,20.48
2023-04-30T12:30:29.309Z,20.31
2023-04-30T12:33:04.770Z,21.14
2023-04-30T12:35:33.411Z,21.04
2023-04-30T12:38:07.402Z,20.46
2023-04-30T12:40:37.498Z,19.46
2023-04-30T12:43:17.395Z,19.34
2023-04-30T12:45:52.289Z,19.80
2023-04-30T12:48:30.583Z,20.45
2023-04-30T12:51:07.995Z,20.72
2023-04-30T12:53:46.373Z,20.73
2023-04-30T12:56:24.936Z,21.80
2023-04-30T12:58:55.633Z,21.35
2023-04-30T13:01:25.332Z,20.88
2023-04-30T13:03:58.935Z,20.98
2023-04-30T13:06:27.603Z,20.63
2023-04-30T13:08:59.159Z,21.13
2023-04-30T13:11:30.580Z,21.17
2023-04-30T13:14:02.937Z,21.73
2023-04-30T13:16:32.227Z,21.67
2023-04-30T13:19:00.447Z,22.26
2023-04-30T13:21:29.964Z,22.75
2023-04-30T13:23:59.882Z,21.48
2023-04-30T13:26:34.628Z,21.56
2023-04-30T13:29:07.314Z,20.58
2023-04-30T13:31:36.375Z,20.24
2023-04-30T13:34:10.076Z,20.31
2023-04-30T13:36:43.988Z,19.65
2023-04-30T13:39:17.901Z,19.65
2023-04-30T13:41:48.237Z,19.82
2023-04-30T13:44:19.224Z,21.34
2023-04-30T13:46:50.183Z,20.73
2023-04-30T13:49:18.676Z,21.55
2023-04-30T13:51:47.157Z,21.10
2023-04-30T13:54:15.436Z,21.87
2023-04-30T13:56:43.784Z,22.22
2023-04-30T13:59:12.473Z,22.35
2023-04-30T14:01:44.785Z,22.08
2023-04-30T14:04:14.120Z,21.97
2023-04-30T14:06:42.580Z,21.07
2023-04-30T14:09:11.787Z,20.73
2023-04-30T14:11:45.986Z,20.18
2023-04-30T14:14:15.613Z,19.81
2023-04-30T14:16:45.826Z,19.95
2023-04-30T14:19:15.408Z,21.22
2023-04-30T14:21:44.117Z,21.15
2023-04-30T14:24:12.570Z,21.03
2023-04-30T14:26:42.001Z,22.04
2023-04-30T14:29:10.350Z,22.53
2023-04-30T14:31:39.079Z,22.42
2023-04-30T14:34:08.573Z,22.78
2023-04-30T14:36:40.218Z,21.39
2023-04-30T14:39:08.864Z,21.29
2023-04-30T14:41:38.495Z,20.75
2023-04-30T14:44:06.949Z,21.40
2023-04-30T14:46:35.203Z,22.08
2023-04-30T14:49:04.608Z,22.11
2023-04-30T14:51:36.566Z,21.61
2023-04-30T14:54:06.144Z,21.70
2023-04-30T14:56:35.019Z,20.65
2023-04-30T14:59:03.316Z,19.57
2023-04-30T15:01:32.471Z,19.91
2023-04-30T15:04:02.453Z,19.73
2023-04-30T15:06:32.402Z,19.58
2023-04-30T15:09:02.745Z,19.59
2023-04-30T15:11:32.611Z,19.71
2023-04-30T15:14:01.059Z,20.09
2023-04-30T15:16:29.783Z,20.06
2023-04-30T15:18:58.558Z,20.44
2023-04-30T15:21:28.911Z,20.59
2023-04-30T15:23:57.165Z,20.48
2023-04-30T15:26:27.730Z,20.88
2023-04-30T15:28:56.715Z,21.10
2023-04-30T15:31:26.787Z,21.12
2023-04-30T15:33:55.118Z,21.32
2023-04-30T15:36:25.325Z,21.54
2023-04-30T15:38:53.362Z,21.02
2023-04-30T15:41:24.091Z,20.69
2023-04-30T15:43:53.602Z,20.04
2023-04-30T15:46:21.542Z,19.36
2023-04-30T15:48:49.779Z,19.12
2023-04-30T15:51:18.321Z,19.10
2023-04-30T15:53:46.812Z,18.97
2023-04-30T15:56:15.491Z,18.96
2023-04-30T15:58:45.403Z,19.08
2023-04-30T16:01:15.056Z,19.22
2023-04-30T16:03:43.438Z,19.58
2023-04-30T16:06:11.943Z,19.48
2023-04-30T16:08:41.386Z,19.75
2023-04-30T16:11:11.071Z,19.58
2023-04-30T16:13:39.450Z,19.46
2023-04-30T16:16:09.877Z,19.56
2023-04-30T16:18:39.380Z,19.55
2023-04-30T16:21:09.418Z,19.38
2023-04-30T16:23:38.737Z,19.51
2023-04-30T16:26:07.392Z,19.29
2023-04-30T16:28:35.905Z,19.15
2023-04-30T16:31:04.652Z,18.82
2023-04-30T16:33:32.730Z,18.80
2023-04-30T16:36:02.384Z,18.88
2023-04-30T16:38:32.879Z,18.77
2023-04-30T16:41:01.175Z,18.76
2023-04-30T16:43:30.354Z,18.76
2023-04-30T16:45:58.703Z,18.65
2023-04-30T16:48:27.281Z,18.68
2023-04-30T16:50:55.390Z,18.64
2023-04-30T16:53:25.340Z,18.44
2023-04-30T16:55:53.794Z,18.28
2023-04-30T16:58:22.186Z,18.37
2023-04-30T17:00:55.776Z,18.37
2023-04-30T17:03:24.695Z,18.30
2023-04-30T17:05:55.823Z,18.25
2023-04-30T17:08:25.852Z,18.22
2023-04-30T17:10:54.020Z,18.21
2023-04-30T17:13:24.011Z,18.31
2023-04-30T17:15:54.677Z,18.14
2023-04-30T17:18:23.399Z,18.16
2023-04-30T17:20:52.655Z,18.14
2023-04-30T17:23:21.143Z,18.05
2023-04-30T17:25:51.069Z,18.14
2023-04-30T17:28:19.461Z,18.27
2023-04-30T17:30:47.682Z,18.30
2023-04-30T17:33:15.813Z,18.09
2023-04-30T17:35:44.260Z,18.01
2023-04-30T17:38:12.362Z,17.89
2023-04-30T17:40:41.990Z,17.87
2023-04-30T17:43:17.154Z,17.71
2023-04-30T17:45:45.545Z,17.55
2023-04-30T17:48:19.274Z,17.50
2023-04-30T17:50:50.496Z,17.42
2023-04-30T17:53:19.752Z,17.33
2023-04-30T17:55:47.996Z,17.37
2023-04-30T17:58:20.532Z,17.26
2023-04-30T18:00:48.880Z,17.10
2023-04-30T18:03:19.636Z,17.03
2023-04-30T18:05:51.039Z,16.95
2023-04-30T18:08:19.698Z,16.80
2023-04-30T18:10:57.879Z,16.68
2023-04-30T18:13:31.138Z,16.47
2023-04-30T18:16:00.530Z,16.28
2023-04-30T18:18:28.879Z,16.16
2023-04-30T18:20:57.754Z,16.08
2023-04-30T18:23:26.769Z,15.91
2023-04-30T18:25:55.639Z,15.72
2023-04-30T18:28:30.959Z,15.51
2023-04-30T18:31:03.474Z,15.37
2023-04-30T18:33:37.881Z,15.23
2023-04-30T18:36:07.783Z,15.09
2023-04-30T18:38:38.775Z,14.92
2023-04-30T18:41:07.450Z,14.80
2023-04-30T18:43:43.095Z,14.67
2023-04-30T18:46:16.669Z,14.55
2023-04-30T18:48:45.412Z,14.48
2023-04-30T18:51:19.766Z,14.41
2023-04-30T18:53:49.660Z,14.26
2023-04-30T18:56:20.193Z,14.12
2023-04-30T18:58:57.625Z,14.03
2023-04-30T19:01:31.858Z,13.91
2023-04-30T19:04:04.448Z,13.72
2023-04-30T19:06:36.817Z,13.57
2023-04-30T19:09:06.746Z,13.44
2023-04-30T19:11:38.085Z,13.31
2023-04-30T19:14:08.774Z,13.32
2023-04-30T19:16:47.042Z,13.38
2023-04-30T19:19:17.897Z,13.30
2023-04-30T19:21:50.047Z,13.33
2023-04-30T19:24:21.134Z,13.42
2023-04-30T19:26:51.871Z,13.34
2023-04-30T19:29:24.787Z,13.23
2023-04-30T19:31:59.642Z,13.10
2023-04-30T19:34:31.133Z,12.98
2023-04-30T19:37:00.618Z,12.87
2023-04-30T19:39:45.433Z,12.82
2023-04-30T19:42:19.082Z,12.65
2023-04-30T19:44:48.249Z,12.60
2023-04-30T19:47:18.439Z,12.55
2023-04-30T19:49:47.700Z,12.49
2023-04-30T19:52:15.986Z,12.43
2023-04-30T19:54:57.111Z,12.36
2023-04-30T19:57:34.814Z,12.33
2023-04-30T20:00:09.991Z,12.24
2023-04-30T20:02:53.979Z,12.15
2023-04-30T20:05:28.452Z,12.14
2023-04-30T20:07:58.356Z,12.07
2023-04-30T20:10:38.379Z,12.04
2023-04-30T20:13:09.142Z,12.00
2023-04-30T20:15:39.517Z,12.02
2023-04-30T20:18:09.424Z,12.01
2023-04-30T20:20:38.062Z,12.08
2023-04-30T20:23:18.268Z,12.14
2023-04-30T20:25:52.176Z,12.12
2023-04-30T20:28:25.716Z,12.04
2023-04-30T20:30:55.728Z,11.99
2023-04-30T20:33:26.568Z,11.89
2023-04-30T20:35:58.731Z,11.82
2023-04-30T20:38:27.350Z,11.80
2023-04-30T20:40:58.008Z,11.84
2023-04-30T20:43:28.651Z,11.87
2023-04-30T20:45:59.047Z,11.87
2023-04-30T20:48:28.940Z,11.93
2023-04-30T20:51:00.017Z,11.98
2023-04-30T20:53:28.500Z,11.97
2023-04-30T20:56:00.272Z,12.00
2023-04-30T20:58:28.753Z,12.09
2023-04-30T21:00:57.057Z,12.08
2023-04-30T21:03:25.723Z,12.06
2023-04-30T21:05:57.491Z,12.04
2023-04-30T21:08:26.536Z,12.10
2023-04-30T21:10:57.545Z,12.11
2023-04-30T21:13:27.082Z,12.18
2023-04-30T21:15:56.458Z,12.26
2023-04-30T21:18:26.547Z,12.23
2023-04-30T21:21:03.214Z,12.30
2023-04-30T21:23:32.662Z,12.35
2023-04-30T21:26:01.438Z,12.37
2023-04-30T21:28:29.590Z,12.32
2023-04-30T21:30:58.321Z,12.32
2023-04-30T21:33:28.151Z,12.34
2023-04-30T21:35:58.091Z,12.34
2023-04-30T21:38:26.275Z,12.34
2023-04-30T21:40:55.008Z,12.32
2023-04-30T21:43:23.950Z,12.28
2023-04-30T21:46:00.682Z,12.25
2023-04-30T21:48:28.813Z,12.14
2023-04-30T21:51:03.233Z,12.06
2023-04-30T21:53:31.472Z,12.00
2023-04-30T21:56:01.428Z,11.94
2023-04-30T21:58:31.066Z,11.85
2023-04-30T22:00:59.103Z,11.86
2023-04-30T22:03:27.453Z,11.84
2023-04-30T22:05:55.985Z,11.81
2023-04-30T22:08:25.583Z,11.93
2023-04-30T22:10:58.851Z,12.02
2023-04-30T22:13:30.135Z,12.00
2023-04-30T22:15:58.438Z,12.11
2023-04-30T22:18:27.019Z,12.20
2023-04-30T22:20:55.503Z,12.19
2023-04-30T22:23:26.610Z,12.20
2023-04-30T22:25:56.585Z,12.40
2023-04-30T22:28:24.702Z,12.44
2023-04-30T22:30:58.818Z,12.51
2023-04-30T22:33:28.433Z,12.59
2023-04-30T22:36:00.220Z,12.62
2023-04-30T22:38:30.510Z,12.64
2023-04-30T22:40:59.954Z,12.79
2023-04-30T22:43:29.177Z,12.86
2023-04-30T22:45:58.787Z,12.85
2023-04-30T22:48:28.167Z,12.85
2023-04-30T22:50:58.137Z,12.90
2023-04-30T22:53:26.247Z,12.94
2023-04-30T22:55:56.241Z,12.86
2023-04-30T22:58:26.921Z,12.85
2023-04-30T23:00:55.238Z,12.99
2023-04-30T23:03:23.607Z,13.00
2023-04-30T23:05:52.099Z,12.96
2023-04-30T23:08:20.435Z,12.90
2023-04-30T23:10:50.557Z,12.89
2023-04-30T23:13:21.924Z,12.96
2023-04-30T23:15:49.820Z,13.01
2023-04-30T23:18:19.648Z,12.90
2023-04-30T23:20:47.709Z,12.91
2023-04-30T23:23:16.135Z,12.77
2023-04-30T23:25:44.717Z,12.85
2023-04-30T23:28:13.340Z,12.78
2023-04-30T23:30:46.024Z,12.73
2023-04-30T23:33:14.158Z,12.72
2023-04-30T23:35:42.790Z,12.66
2023-04-30T23:38:11.269Z,12.72
2023-04-30T23:40:39.590Z,12.68
2023-04-30T23:43:08.065Z,12.76
2023-04-30T23:45:38.118Z,12.76
2023-04-30T23:48:07.852Z,12.72
2023-04-30T23:50:35.891Z,12.66
2023-04-30T23:53:04.123Z,12.65
2023-04-30T23:55:32.776Z,12.69
2023-04-30T23:58:01.467Z,12.72
